Time;durP1;ratioP1;P1;durP2;ratioP2;P2;SDS_P1;SDS_P2;PMS_P1;PMS_P2;Temp;Humidity;BMP_temperature;BMP_pressure;BME280_temperature;BME280_humidity;BME280_pressure;Samples;Min_cycle;Max_cycle;Signal;HPM_P1;HPM_P2
2022/06/23 00:02:25;;;;;;;12.55;4.18;;;;;;;22.75;48.80;96413.91;4965925;28;20433;-62
2022/06/23 00:04:58;;;;;;;7.15;3.75;;;;;;;23.15;49.65;96493.75;4965999;28;20057;-63
2022/06/23 00:07:29;;;;;;;5.85;3.30;;;;;;;22.96;49.97;96463.88;4964903;28;20059;-62
2022/06/23 00:09:59;;;;;;;6.90;4.10;;;;;;;23.06;50.28;96473.97;4964715;28;20445;-63
2022/06/23 00:12:33;;;;;;;25.63;11.98;;;;;;;22.77;50.65;96484.81;4964782;28;20062;-62
2022/06/23 00:15:03;;;;;;;22.13;11.02;;;;;;;;;;4966352;28;20047;-62
2022/06/23 00:17:36;;;;;;;23.45;11.55;;;;;;;22.13;51.39;96401.84;4964109;28;20058;-62
2022/06/23 00:20:24;;;;;;;21.10;9.50;;;;;;;22.68;52.51;96504.56;4964558;28;20050;-63
2022/06/23 00:23:19;;;;;;;6.57;4.78;;;;;;;22.53;52.62;96503.53;4954685;28;20121;-62
2022/06/23 00:26:02;;;;;;;8.45;5.30;;;;;;;22.49;52.73;96473.34;4963824;28;20067;-63
2022/06/23 00:28:36;;;;;;;9.15;5.13;;;;;;;22.49;52.97;96481.81;4964231;28;20058;-62
2022/06/23 00:31:06;;;;;;;18.67;8.90;;;;;;;21.63;53.74;96385.97;4963875;28;20163;-62
2022/06/23 00:33:41;;;;;;;6.88;4.25;;;;;;;22.26;53.67;96484.34;4963931;28;20173;-62
2022/06/23 00:36:46;;;;;;;9.65;4.22;;;;;;;21.94;53.01;96457.34;4965474;28;20051;-62
2022/06/23 00:39:21;;;;;;;6.65;3.92;;;;;;;22.18;53.67;96481.03;4961993;28;20081;-62
2022/06/23 00:41:48;;;;;;;4.38;3.58;;;;;;;21.62;53.55;96423.06;4965388;28;20050;-61
2022/06/23 00:44:22;;;;;;;4.38;3.33;;;;;;;21.85;54.34;96440.34;4965169;28;20067;-62
2022/06/23 00:46:52;;;;;;;;;;;;;;;21.78;55.53;96494.19;4964518;28;20441;-62
2022/06/23 00:49:32;;;;;;;13.02;6.35;;;;;;;21.50;57.20;96483.88;4963976;28;19926;-62
2022/06/23 00:52:15;;;;;;;8.55;5.03;;;;;;;21.07;57.29;96393.59;4963852;28;20055;-62
2022/06/23 00:54:46;;;;;;;6.93;3.80;;;;;;;21.65;58.03;96484.97;4963697;28;20081;-63
2022/06/23 00:57:24;;;;;;;6.97;3.78;;;;;;;21.56;57.68;96481.28;4965367;28;20051;-62
2022/06/23 00:59:59;;;;;;;7.65;4.57;;;;;;;21.51;57.18;96465.75;4964113;28;20059;-62
2022/06/23 01:02:35;;;;;;;7.22;3.83;;;;;;;20.43;56.52;96278.78;4964209;28;20400;-62
2022/06/23 01:05:12;;;;;;;9.02;3.65;;;;;;;21.63;56.84;96459.25;4964029;28;20261;-63
2022/06/23 01:07:52;;;;;;;9.63;4.75;;;;;;;20.36;58.62;96366.22;4965413;28;20050;-62
2022/06/23 01:10:35;;;;;;;7.65;4.82;;;;;;;21.04;58.73;96473.38;4964016;28;20061;-62
2022/06/23 01:13:04;;;;;;;9.25;4.57;;;;;;;21.08;58.82;96468.44;4965092;28;20517;-63
2022/06/23 01:15:45;;;;;;;7.03;4.53;;;;;;;21.14;58.87;96463.78;4963110;28;20058;-62
2022/06/23 01:18:25;;;;;;;11.90;5.65;;;;;;;21.10;59.38;96460.31;4964899;28;20085;-62
2022/06/23 01:21:02;;;;;;;14.27;6.05;;;;;;;21.23;58.79;96491.28;4965160;28;20082;-62
2022/06/23 01:23:34;;;;;;;9.57;5.68;;;;;;;21.21;58.40;96500.19;4965047;28;20051;-63
2022/06/23 01:26:34;;;;;;;7.07;4.35;;;;;;;20.85;58.47;96437.78;4963774;28;20054;-62
2022/06/23 01:29:08;;;;;;;7.22;3.75;;;;;;;21.36;58.28;96484.38;4963316;28;20154;-64
2022/06/23 01:31:52;;;;;;;5.50;3.95;;;;;;;20.95;58.73;96428.19;4963416;28;20051;-63
2022/06/23 01:34:29;;;;;;;7.05;4.45;;;;;;;21.10;59.51;96490.50;4963298;28;20518;-62
2022/06/23 01:37:19;;;;;;;4.45;3.78;;;;;;;21.07;59.94;96482.97;4964902;28;20521;-63
2022/06/23 01:39:52;;;;;;;5.18;3.72;;;;;;;20.96;59.57;96460.75;4963899;28;20051;-63
2022/06/23 01:42:29;;;;;;;10.55;4.00;;;;;;;20.66;60.08;96433.97;4967016;28;20061;-62
2022/06/23 01:45:04;;;;;;;6.38;4.78;;;;;;;19.03;59.80;96168.81;4968383;28;20059;-63
2022/06/23 01:47:42;;;;;;;7.65;4.78;;;;;;;21.01;60.23;96467.88;4967085;28;20117;-62
2022/06/23 01:50:14;;;;;;;5.43;4.60;;;;;;;21.03;60.23;96466.19;4966739;28;20059;-64
2022/06/23 01:52:44;;;;;;;9.65;4.13;;;;;;;20.71;60.12;96438.22;4968261;28;20059;-63
2022/06/23 01:55:26;;;;;;;5.90;4.00;;;;;;;20.73;60.93;96469.53;4968604;28;20521;-62
2022/06/23 01:58:02;;;;;;;7.85;4.28;;;;;;;20.82;60.89;96475.28;4967774;28;20055;-64
2022/06/23 02:00:29;;;;;;;6.53;4.20;;;;;;;20.70;60.91;96447.94;4968225;28;20055;-63
2022/06/23 02:03:23;;;;;;;4.35;3.03;;;;;;;20.90;60.27;96482.25;4967644;28;20613;-62
2022/06/23 02:05:56;;;;;;;6.03;4.22;;;;;;;20.91;59.88;96472.59;4968065;28;20050;-62
2022/06/23 02:08:45;;;;;;;7.65;3.65;;;;;;;20.69;60.52;96449.19;4967819;28;20433;-62
2022/06/23 02:11:37;;;;;;;5.50;3.97;;;;;;;20.77;61.15;96464.59;4966871;28;20086;-62
2022/06/23 02:14:04;;;;;;;6.78;4.38;;;;;;;20.82;60.71;96466.84;4966762;28;20497;-63
2022/06/23 02:16:52;;;;;;;5.82;4.80;;;;;;;20.84;61.11;96448.25;4966157;28;20477;-62
2022/06/23 02:19:51;;;;;;;8.25;3.75;;;;;;;20.97;60.49;96456.72;4967972;28;20070;-62
2022/06/23 02:22:23;;;;;;;7.05;3.92;;;;;;;20.87;60.86;96474.72;4967876;28;20069;-62
2022/06/23 02:25:04;;;;;;;4.97;3.47;;;;;;;20.78;61.48;96471.81;4968068;28;20341;-62
2022/06/23 02:27:50;;;;;;;11.35;3.80;;;;;;;20.74;61.00;96476.75;4967464;28;20169;-62
2022/06/23 02:30:29;;;;;;;8.98;3.70;;;;;;;20.75;61.55;96469.88;4966458;28;20069;-62
2022/06/23 02:33:19;;;;;;;6.93;4.22;;;;;;;20.80;60.77;96458.84;4965890;28;20542;-62
2022/06/23 02:36:12;;;;;;;6.47;3.75;;;;;;;19.94;60.79;96350.66;4967801;28;20449;-62
2022/06/23 02:39:03;;;;;;;8.20;3.60;;;;;;;20.60;60.50;96444.22;4967149;28;20055;-62
2022/06/23 02:41:34;;;;;;;8.98;4.22;;;;;;;20.67;60.88;96465.72;4965671;28;20594;-62
2022/06/23 02:44:19;;;;;;;7.50;4.10;;;;;;;20.37;62.50;96457.81;4967452;28;20055;-62
2022/06/23 02:47:02;;;;;;;5.47;3.55;;;;;;;20.20;63.42;96459.16;4965922;28;20059;-62
2022/06/23 02:49:57;;;;;;;5.35;3.75;;;;;;;20.23;63.00;96455.44;4965881;28;20074;-61
2022/06/23 02:52:45;;;;;;;6.18;3.67;;;;;;;20.24;62.36;96454.19;4965706;28;20518;-62
2022/06/23 02:55:27;;;;;;;6.13;4.20;;;;;;;19.57;61.45;96357.00;4965794;28;20530;-62
2022/06/23 02:58:15;;;;;;;6.85;3.65;;;;;;;20.25;61.56;96462.19;4966778;28;20055;-63
2022/06/23 03:00:49;;;;;;;7.47;3.47;;;;;;;20.15;61.34;96454.88;4965204;28;20518;-63
2022/06/23 03:03:31;;;;;;;;;;;;;;;20.12;61.04;96464.16;4967384;28;20059;-63
2022/06/23 03:06:05;;;;;;;4.38;2.97;;;;;;;20.08;60.58;96468.31;4965755;28;20022;-62
2022/06/23 03:09:04;;;;;;;5.93;3.45;;;;;;;19.99;61.58;96466.16;4965018;28;20113;-63
2022/06/23 03:11:51;;;;;;;8.13;3.30;;;;;;;19.67;63.29;96468.28;4962180;28;20557;-62
2022/06/23 03:14:40;;;;;;;10.82;5.28;;;;;;;19.68;64.31;96467.06;4965048;28;20624;-62
2022/06/23 03:17:15;;;;;;;11.90;5.95;;;;;;;19.83;64.11;96473.88;4966506;28;20066;-62
2022/06/23 03:20:08;;;;;;;10.65;5.35;;;;;;;19.33;63.44;96373.34;4964934;28;20081;-62
2022/06/23 03:22:43;;;;;;;9.43;4.80;;;;;;;20.12;62.80;96491.50;4930046;28;20603;-64
2022/06/23 03:25:27;;;;;;;9.82;4.57;;;;;;;18.48;62.24;96217.66;4976349;28;20055;-63
2022/06/23 03:28:22;;;;;;;6.75;4.38;;;;;;;20.31;62.55;96487.75;4966290;28;20055;-63
2022/06/23 03:31:00;;;;;;;4.35;3.72;;;;;;;18.44;60.64;96160.91;4965442;28;20214;-64
2022/06/23 03:33:36;;;;;;;7.45;4.70;;;;;;;20.66;61.02;96492.31;4964886;28;20113;-63
2022/06/23 03:36:24;;;;;;;21.27;8.60;;;;;;;20.67;60.71;96482.63;4965076;28;20055;-64
2022/06/23 03:42:09;;;;;;;8.82;3.28;;;;;;;20.31;60.53;96496.19;4966264;28;20528;-63
2022/06/23 03:45:18;;;;;;;5.47;3.45;;;;;;;20.44;60.67;96527.94;4966457;28;20054;-64
2022/06/23 03:48:14;;;;;;;7.15;3.25;;;;;;;19.92;60.31;96437.44;4964776;28;20113;-63
2022/06/23 03:50:53;;;;;;;5.82;3.38;;;;;;;20.47;60.29;96529.88;4964539;28;20422;-64
2022/06/23 03:53:28;;;;;;;3.80;3.38;;;;;;;20.61;60.56;96535.06;4965761;28;20046;-63
2022/06/23 03:56:09;;;;;;;9.27;3.70;;;;;;;20.63;60.87;96539.00;4964846;28;20059;-63
2022/06/23 03:59:11;;;;;;;8.98;3.90;;;;;;;20.45;62.12;96547.22;4965886;28;20082;-64
2022/06/23 04:01:57;;;;;;;5.82;3.53;;;;;;;20.39;63.41;96551.03;4964246;28;20445;-64
2022/06/23 04:04:38;;;;;;;8.10;4.10;;;;;;;20.37;63.43;96540.22;4965823;28;20050;-63
2022/06/23 04:07:28;;;;;;;7.18;3.55;;;;;;;19.75;63.20;96444.38;4964384;28;20054;-63
2022/06/23 04:10:01;;;;;;;6.20;4.45;;;;;;;20.40;63.27;96535.69;4962615;28;20055;-64
2022/06/23 04:12:45;;;;;;;7.28;3.55;;;;;;;19.88;62.26;96459.25;4964111;28;20047;-63
2022/06/23 04:15:22;;;;;;;4.85;3.20;;;;;;;20.32;62.13;96517.44;4965906;28;20058;-63
2022/06/23 04:17:57;;;;;;;5.38;3.50;;;;;;;20.70;61.34;96571.78;4965589;28;20062;-64
2022/06/23 04:20:37;;;;;;;7.60;3.70;;;;;;;20.81;61.46;96546.91;4965741;28;20054;-63
2022/06/23 04:23:06;;;;;;;7.82;3.47;;;;;;;20.92;60.78;96544.56;4965761;28;20102;-63
2022/06/23 04:25:56;;;;;;;6.30;3.80;;;;;;;21.02;59.72;96530.16;4963885;28;20137;-63
2022/06/23 04:28:32;;;;;;;6.32;3.10;;;;;;;21.04;59.24;96540.97;4964075;28;20074;-63
2022/06/23 04:31:03;;;;;;;5.15;3.35;;;;;;;21.24;58.42;96533.09;4963915;28;20446;-64
2022/06/23 04:33:34;;;;;;;4.93;3.50;;;;;;;21.35;58.98;96527.88;4963411;28;20089;-63
2022/06/23 04:36:01;;;;;;;4.40;3.20;;;;;;;21.19;58.11;96499.84;4965635;28;20055;-63
2022/06/23 04:38:42;;;;;;;5.47;3.33;;;;;;;21.32;58.34;96551.34;4965124;28;20058;-63
2022/06/23 04:41:12;;;;;;;6.40;3.22;;;;;;;19.75;57.82;96219.53;4963953;28;20066;-63
2022/06/23 04:43:45;;;;;;;5.88;3.35;;;;;;;22.07;57.21;96522.94;4965177;28;20066;-63
2022/06/23 04:46:16;;;;;;;8.77;3.40;;;;;;;22.46;56.04;96529.97;4964423;28;20055;-64
2022/06/23 04:48:52;;;;;;;4.38;3.55;;;;;;;22.85;54.13;96525.66;4964745;28;20055;-65
2022/06/23 04:51:28;;;;;;;7.60;3.30;;;;;;;23.01;52.93;96531.06;4962476;28;20066;-65
2022/06/23 04:54:14;;;;;;;7.30;3.38;;;;;;;23.18;52.88;96541.66;4965681;28;20050;-64
2022/06/23 04:56:49;;;;;;;6.10;3.25;;;;;;;22.58;52.66;96443.63;4965195;28;20059;-65
2022/06/23 04:59:25;;;;;;;6.25;3.90;;;;;;;23.20;53.30;96549.69;4965393;28;20071;-65
2022/06/23 05:01:54;;;;;;;8.35;3.85;;;;;;;23.17;54.73;96536.47;4965091;28;20054;-65
2022/06/23 05:04:33;;;;;;;16.70;11.60;;;;;;;23.36;55.43;96553.06;4963754;28;20502;-65
2022/06/23 05:07:01;;;;;;;9.50;5.53;;;;;;;23.00;55.54;96521.03;4963691;28;20137;-65
2022/06/23 05:09:38;;;;;;;8.73;4.68;;;;;;;22.44;60.71;96564.31;4965189;28;20070;-65
2022/06/23 05:12:24;;;;;;;11.32;4.15;;;;;;;21.58;62.04;96434.47;4964012;28;20070;-65
2022/06/23 05:14:54;;;;;;;11.07;4.28;;;;;;;22.23;63.30;96565.09;4964767;28;20065;-65
2022/06/23 05:17:32;;;;;;;16.33;4.43;;;;;;;22.62;62.72;96562.88;4965581;28;20109;-65
2022/06/23 05:20:03;;;;;;;7.70;3.60;;;;;;;22.67;61.70;96567.94;4967617;28;20055;-64
2022/06/23 05:22:40;;;;;;;7.88;3.90;;;;;;;22.72;61.73;96567.31;4968697;28;20055;-64
2022/06/23 05:25:39;;;;;;;5.38;3.53;;;;;;;22.75;61.19;96567.19;4967568;28;20062;-65
2022/06/23 05:28:12;;;;;;;6.93;3.65;;;;;;;22.41;60.24;96514.41;4968141;28;20066;-65
2022/06/23 05:30:47;;;;;;;5.55;3.25;;;;;;;22.78;60.17;96554.19;4967290;28;20062;-65
2022/06/23 05:33:27;;;;;;;8.65;3.40;;;;;;;22.88;58.60;96548.13;4969183;28;20481;-65
2022/06/23 05:36:03;;;;;;;5.53;4.00;;;;;;;22.45;62.05;96565.88;4968481;28;20058;-65
2022/06/23 05:38:39;;;;;;;4.45;3.40;;;;;;;22.85;61.60;96582.16;4966728;28;20437;-65
2022/06/23 05:41:25;;;;;;;6.80;3.80;;;;;;;22.27;60.14;96520.56;4968800;28;20051;-66
2022/06/23 05:43:56;;;;;;;5.13;3.90;;;;;;;23.18;56.19;96571.97;4968343;28;20066;-64
2022/06/23 05:46:26;;;;;;;6.00;3.10;;;;;;;23.32;56.96;96543.94;4965850;28;20055;-68
2022/06/23 05:49:04;;;;;;;4.55;3.65;;;;;;;23.79;57.06;96571.84;4960939;28;20055;-61
2022/06/23 05:51:49;;;;;;;8.05;3.63;;;;;;;23.52;54.27;96512.44;4956185;28;20119;-63
2022/06/23 05:54:30;;;;;;;6.85;4.22;;;;;;;24.10;53.54;96564.09;4977677;28;20058;-60
2022/06/23 05:57:18;;;;;;;5.00;4.10;;;;;;;24.41;53.45;96556.22;4951729;28;20426;-62
2022/06/23 05:59:47;;;;;;;6.03;3.65;;;;;;;24.52;53.17;96567.03;4966518;28;20129;-62
2022/06/23 06:02:24;;;;;;;6.28;4.00;;;;;;;24.40;52.52;96588.63;4966287;28;20066;-62
2022/06/23 06:04:57;;;;;;;3.97;3.53;;;;;;;24.48;50.81;96538.91;4964121;28;20082;-59
2022/06/23 06:07:36;;;;;;;6.25;4.00;;;;;;;24.78;50.38;96557.78;4965462;28;20054;-61
2022/06/23 06:10:06;;;;;;;7.45;3.58;;;;;;;24.94;50.28;96570.78;4966926;28;20046;-62
2022/06/23 06:12:37;;;;;;;5.00;3.83;;;;;;;24.92;50.47;96551.44;4965714;28;20058;-62
2022/06/23 06:15:13;;;;;;;6.38;4.35;;;;;;;24.74;49.11;96528.00;4968013;28;20051;-64
2022/06/23 06:17:40;;;;;;;8.38;3.90;;;;;;;24.74;49.68;96540.13;4967317;28;20438;-63
2022/06/23 06:20:09;;;;;;;10.50;4.15;;;;;;;24.26;49.63;96554.50;4949669;28;20059;-63
2022/06/23 06:22:46;;;;;;;6.03;4.15;;;;;;;24.70;49.99;96589.72;4962744;28;20065;-72
2022/06/23 06:25:27;;;;;;;6.00;4.60;;;;;;;24.31;51.02;96585.78;4963937;28;20066;-61
2022/06/23 06:27:58;;;;;;;12.40;4.35;;;;;;;24.36;55.00;96612.69;4957688;28;20050;-62
2022/06/23 06:30:32;;;;;;;5.95;4.18;;;;;;;23.50;54.81;96563.81;4956466;28;20046;-64
2022/06/23 06:32:59;;;;;;;5.65;3.97;;;;;;;23.61;58.38;96625.56;4959425;28;20061;-65
2022/06/23 06:35:40;;;;;;;10.93;4.00;;;;;;;23.17;60.04;96626.91;4965552;28;20577;-71
2022/06/23 06:38:15;;;;;;;10.55;5.95;;;;;;;23.12;62.31;96647.28;4964693;28;20047;-63
2022/06/23 06:40:48;;;;;;;5.97;4.47;;;;;;;23.11;63.82;96638.03;4954274;28;20055;-61
2022/06/23 06:43:21;;;;;;;14.52;4.47;;;;;;;23.05;64.39;96670.16;4962975;28;20134;-65
2022/06/23 06:45:48;;;;;;;5.70;3.85;;;;;;;23.03;63.44;96681.16;4964218;28;20053;-64
2022/06/23 06:48:21;;;;;;;9.68;3.80;;;;;;;22.56;64.24;96688.97;4963198;28;20086;-61
2022/06/23 06:50:53;;;;;;;10.68;4.63;;;;;;;22.39;65.98;96689.09;4964917;28;20046;-61
2022/06/23 06:53:34;;;;;;;8.38;5.95;;;;;;;22.75;64.03;96701.97;4963856;28;20063;-64
2022/06/23 06:56:33;;;;;;;8.05;4.40;;;;;;;22.91;61.44;96728.00;4959142;28;20055;-64
2022/06/23 06:59:09;;;;;;;12.68;4.10;;;;;;;23.02;62.73;96741.72;4963642;28;20058;-63
2022/06/23 07:01:39;;;;;;;8.98;3.67;;;;;;;20.75;62.71;96358.06;4964025;28;20151;-65
2022/06/23 07:04:13;;;;;;;6.15;4.25;;;;;;;23.28;62.85;96734.72;4960291;28;20066;-62
2022/06/23 07:06:53;;;;;;;11.07;4.25;;;;;;;23.09;61.83;96710.38;4957878;28;20062;-63
2022/06/23 07:09:51;;;;;;;5.90;3.53;;;;;;;23.37;62.62;96765.88;4965574;28;20062;-68
2022/06/23 07:12:45;;;;;;;8.95;3.88;;;;;;;23.42;60.41;96762.47;4959977;28;20062;-61
2022/06/23 07:15:29;;;;;;;8.35;3.92;;;;;;;23.37;61.38;96797.78;4983714;28;20054;-65
2022/06/23 07:18:25;;;;;;;4.20;3.58;;;;;;;23.20;61.80;96772.97;4970990;28;20063;-64
2022/06/23 07:21:00;;;;;;;4.75;3.47;;;;;;;22.96;59.25;96735.88;4973768;28;21859;-62
2022/06/23 07:23:29;;;;;;;3.47;3.08;;;;;;;23.22;56.90;96771.25;4952792;28;20572;-62
2022/06/23 07:26:30;;;;;;;9.02;3.55;;;;;;;22.66;58.00;96761.19;4956472;28;20078;-60
2022/06/23 07:29:03;;;;;;;15.02;4.22;;;;;;;22.67;62.62;96751.50;4973830;28;20062;-59
2022/06/23 07:31:52;;;;;;;7.47;4.05;;;;;;;22.43;67.52;96729.25;4965825;28;20521;-67
2022/06/23 07:34:21;;;;;;;8.40;4.10;;;;;;;22.16;73.90;96692.31;4961261;28;20058;-64
2022/06/23 07:36:55;;;;;;;9.80;4.18;;;;;;;20.02;73.87;96352.00;4964125;28;20449;-77
2022/06/23 07:39:27;;;;;;;9.20;4.80;;;;;;;21.92;70.13;96651.63;4966571;28;20165;-61
2022/06/23 07:42:02;;;;;;;6.07;3.53;;;;;;;21.45;64.94;96638.69;4962126;28;20593;-62
2022/06/23 07:44:41;;;;;;;7.75;3.75;;;;;;;21.22;65.89;96681.25;4962926;28;20051;-61
2022/06/23 07:47:09;;;;;;;9.57;3.10;;;;;;;20.81;73.43;96634.19;4966274;28;20051;-63
2022/06/23 07:49:36;;;;;;;7.78;4.20;;;;;;;20.77;81.10;96651.19;4963641;28;20046;-68
2022/06/23 07:52:04;;;;;;;9.95;4.75;;;;;;;20.12;88.05;96654.63;4963379;28;20043;-69
2022/06/23 07:54:35;;;;;;;7.70;4.50;;;;;;;19.89;90.12;96587.34;4972548;28;20112;-75
2022/06/23 07:57:03;;;;;;;8.27;4.18;;;;;;;19.79;86.34;96658.69;4964704;28;20057;-71
2022/06/23 07:59:40;;;;;;;8.10;4.78;;;;;;;19.62;93.18;96662.75;4972223;28;20406;-63
2022/06/23 08:02:18;;;;;;;10.40;6.10;;;;;;;19.46;97.63;96658.69;4961229;28;20057;-60
2022/06/23 08:05:22;;;;;;;4.85;3.75;;;;;;;19.82;92.97;96657.81;4966539;28;20077;-67
2022/06/23 08:07:49;;;;;;;4.93;3.85;;;;;;;19.57;92.85;96556.50;4957159;28;20066;-63
2022/06/23 08:10:27;;;;;;;3.83;3.35;;;;;;;20.06;87.88;96588.91;4964301;28;20161;-65
2022/06/23 08:13:09;;;;;;;10.20;3.92;;;;;;;19.82;86.77;96520.09;4961118;28;20078;-70
2022/06/23 08:18:27;;;;;;;6.10;3.67;;;;;;;20.63;86.61;96659.25;4960207;28;20096;-63
2022/06/23 08:21:01;;;;;;;6.55;4.25;;;;;;;20.36;89.44;96605.38;4965607;28;20059;-64
2022/06/23 08:23:33;;;;;;;7.03;3.45;;;;;;;20.65;86.10;96653.97;4967940;28;20057;-62
2022/06/23 08:26:01;;;;;;;5.13;3.20;;;;;;;20.59;82.88;96667.00;4969657;28;20065;-64
2022/06/23 08:28:28;;;;;;;7.13;3.85;;;;;;;20.48;85.14;96667.31;4967275;28;20441;-62
2022/06/23 08:30:55;;;;;;;11.15;3.40;;;;;;;20.30;87.40;96649.31;4966170;28;20140;-62
2022/06/23 08:33:22;;;;;;;4.28;3.88;;;;;;;20.02;89.00;96666.94;4966991;28;20051;-62
2022/06/23 08:35:55;;;;;;;7.55;3.45;;;;;;;19.27;87.96;96583.69;4969111;28;20046;-63
2022/06/23 08:38:22;;;;;;;;;;;;;;;20.14;87.30;96733.75;4967479;28;20445;-61
2022/06/23 08:40:58;;;;;;;7.20;4.07;;;;;;;20.06;87.63;96740.75;4969334;28;19968;-62
2022/06/23 08:43:35;;;;;;;5.47;3.72;;;;;;;19.86;89.90;96745.66;4967093;28;20058;-62
2022/06/23 08:46:05;;;;;;;6.05;4.32;;;;;;;19.80;99.84;96750.22;4965774;28;20544;-62
2022/06/23 08:48:55;;;;;;;4.72;3.80;;;;;;;19.85;97.07;96750.50;4965644;28;20051;-63
2022/06/23 08:51:27;;;;;;;7.28;4.07;;;;;;;19.70;100.00;96740.00;4966952;28;20066;-62
2022/06/23 08:54:10;;;;;;;5.53;4.45;;;;;;;19.72;100.00;96715.88;4972214;28;20058;-61
2022/06/23 08:57:03;;;;;;;5.82;4.50;;;;;;;19.78;100.00;96699.25;4971227;28;20061;-62
2022/06/23 08:59:38;;;;;;;11.77;5.10;;;;;;;19.33;98.56;96615.66;4975352;28;20070;-62
2022/06/23 09:02:20;;;;;;;5.55;3.90;;;;;;;19.89;96.34;96685.72;4968635;28;20058;-62
2022/06/23 09:05:25;;;;;;;6.10;4.70;;;;;;;19.95;99.59;96689.63;4975885;28;20062;-62
2022/06/23 09:08:20;;;;;;;6.10;4.13;;;;;;;19.91;99.80;96647.53;4968183;28;20069;-62
2022/06/23 09:11:31;;;;;;;5.63;3.95;;;;;;;19.82;100.00;96692.34;4965888;28;20086;-62
2022/06/23 09:14:16;;;;;;;6.13;4.60;;;;;;;20.01;100.00;96676.59;4971471;28;20093;-61
2022/06/23 09:16:51;;;;;;;6.85;4.65;;;;;;;20.28;100.00;96668.69;4969431;28;20165;-61
2022/06/23 09:19:39;;;;;;;8.70;4.30;;;;;;;20.36;100.00;96686.97;4973584;28;20505;-62
2022/06/23 09:22:15;;;;;;;6.25;4.18;;;;;;;20.46;100.00;96678.22;4968232;28;20055;-61
2022/06/23 09:25:17;;;;;;;5.05;4.32;;;;;;;20.53;96.94;96702.56;4971589;28;20098;-61
2022/06/23 09:28:14;;;;;;;4.60;4.20;;;;;;;20.10;96.55;96652.25;4964855;28;20134;-63
2022/06/23 09:30:57;;;;;;;5.93;3.80;;;;;;;20.70;94.85;96723.78;4969783;28;20070;-62
2022/06/23 09:33:48;;;;;;;4.07;3.40;;;;;;;20.56;88.38;96741.06;4969600;28;20484;-62
2022/06/23 09:36:29;;;;;;;4.88;3.25;;;;;;;20.41;87.13;96731.41;4967598;28;20065;-66
2022/06/23 09:39:14;;;;;;;8.93;3.58;;;;;;;20.48;87.18;96722.78;4969833;28;20050;-63
2022/06/23 09:41:51;;;;;;;4.72;3.35;;;;;;;20.31;87.12;96704.38;4965621;28;20066;-70
2022/06/23 09:44:47;;;;;;;8.20;3.50;;;;;;;19.77;91.27;96616.19;4968555;28;20054;-63
2022/06/23 09:47:38;;;;;;;12.10;4.75;;;;;;;20.31;93.37;96677.00;4955695;28;20073;-72
2022/06/23 09:50:22;;;;;;;11.10;4.90;;;;;;;20.33;92.94;96666.13;4971744;28;20357;-66
2022/06/23 09:52:55;;;;;;;23.13;8.73;;;;;;;20.41;84.73;96663.88;4961768;28;20057;-62
2022/06/23 09:55:57;;;;;;;19.17;8.20;;;;;;;20.34;87.14;96667.72;4967465;28;20046;-60
2022/06/23 09:58:33;;;;;;;6.68;4.20;;;;;;;20.48;83.27;96660.88;4966029;28;20061;-62
2022/06/23 10:00:59;;;;;;;3.53;2.85;;;;;;;20.71;79.83;96674.69;4969695;28;20066;-64
2022/06/23 10:03:59;;;;;;;5.05;3.22;;;;;;;20.89;77.08;96674.97;4965315;28;20086;-62
2022/06/23 10:07:22;;;;;;;4.03;2.78;;;;;;;21.12;75.65;96680.34;4964276;28;20063;-60
2022/06/23 10:10:00;;;;;;;6.90;3.22;;;;;;;20.71;77.23;96618.41;4959441;28;20066;-58
2022/06/23 10:12:39;;;;;;;6.35;3.15;;;;;;;20.94;77.50;96643.47;4953037;28;20085;-58
2022/06/23 10:15:31;;;;;;;5.78;3.33;;;;;;;21.38;76.84;96676.34;4970579;28;20054;-67
2022/06/23 10:18:22;;;;;;;8.32;3.10;;;;;;;21.26;78.03;96677.09;4959322;28;20054;-61
2022/06/23 10:21:17;;;;;;;3.50;3.17;;;;;;;21.22;80.81;96670.78;4967138;28;20053;-61
2022/06/23 10:24:02;;;;;;;;;;;;;;;21.36;79.41;96656.25;4951381;28;20072;-61
2022/06/23 10:26:57;;;;;;;7.97;4.53;;;;;;;21.51;78.65;96674.31;4965740;28;19925;-64
2022/06/23 10:30:22;;;;;;;7.82;3.30;;;;;;;21.48;76.11;96678.00;4962863;28;20065;-73
2022/06/23 10:33:22;;;;;;;7.60;3.22;;;;;;;21.78;73.71;96660.53;4929886;29;20272;-63
2022/06/23 10:36:15;;;;;;;5.32;3.10;;;;;;;22.10;72.57;96662.28;4934514;29;20064;-68
2022/06/23 10:39:23;;;;;;;4.05;3.22;;;;;;;22.16;72.86;96655.63;4960163;28;20117;-69
2022/06/23 10:41:52;;;;;;;5.90;3.45;;;;;;;22.31;73.06;96655.91;4970369;28;20430;-67
2022/06/23 10:44:43;;;;;;;4.80;2.97;;;;;;;22.42;72.97;96645.03;4959707;28;20050;-66
2022/06/23 10:47:33;;;;;;;5.05;3.20;;;;;;;22.45;68.56;96605.41;4964198;28;20651;-64
2022/06/23 10:50:20;;;;;;;4.30;3.70;;;;;;;23.01;67.99;96663.88;4967040;28;20054;-60
2022/06/23 10:53:35;;;;;;;5.47;3.10;;;;;;;23.34;66.54;96648.06;4965914;28;20053;-63
2022/06/23 10:56:36;;;;;;;4.43;3.10;;;;;;;23.50;63.67;96647.84;4966261;28;20516;-65
2022/06/23 10:59:27;;;;;;;9.82;3.17;;;;;;;23.21;63.45;96655.81;4968497;28;20161;-65
2022/06/23 11:02:33;;;;;;;5.25;3.20;;;;;;;23.11;63.22;96651.38;4971110;28;20062;-63
2022/06/23 11:05:35;;;;;;;6.38;2.75;;;;;;;23.25;63.42;96654.47;4967361;28;20062;-65
2022/06/23 11:08:20;;;;;;;5.80;3.45;;;;;;;23.46;62.11;96655.66;4966604;28;20054;-64
2022/06/23 11:10:59;;;;;;;5.63;3.67;;;;;;;23.42;63.79;96655.03;4969809;28;20062;-63
2022/06/23 11:13:55;;;;;;;6.15;3.13;;;;;;;22.80;64.50;96636.41;4960947;28;20424;-67
2022/06/23 11:16:28;;;;;;;5.07;3.15;;;;;;;23.00;64.43;96651.00;4959896;28;20061;-66
2022/06/23 11:19:00;;;;;;;4.43;3.33;;;;;;;22.86;66.69;96646.66;4965393;28;20066;-65
2022/06/23 11:21:59;;;;;;;6.63;3.53;;;;;;;22.91;64.97;96648.91;4967194;28;20548;-75
2022/06/23 11:25:00;;;;;;;3.28;3.03;;;;;;;23.03;65.08;96650.84;4973013;28;20069;-61
2022/06/23 11:27:37;;;;;;;7.22;4.05;;;;;;;23.09;66.13;96649.03;4950466;28;20135;-67
2022/06/23 11:30:11;;;;;;;9.55;3.88;;;;;;;23.27;66.61;96642.69;4971992;28;20050;-63
2022/06/23 11:32:54;;;;;;;8.23;3.80;;;;;;;23.38;65.40;96655.16;4964752;28;20070;-65
2022/06/23 11:35:29;;;;;;;3.90;3.03;;;;;;;23.55;65.36;96652.88;4971638;28;20097;-63
2022/06/23 11:38:08;;;;;;;4.40;3.05;;;;;;;23.56;62.47;96643.94;4963709;28;20082;-62
2022/06/23 11:40:45;;;;;;;5.40;3.63;;;;;;;23.88;64.15;96651.13;4972050;28;20058;-61
2022/06/23 11:43:19;;;;;;;4.35;3.30;;;;;;;23.29;65.23;96583.66;4962771;28;20093;-65
2022/06/23 11:46:18;;;;;;;9.07;4.57;;;;;;;23.57;69.69;96658.84;4962072;28;20130;-62
2022/06/23 11:49:03;;;;;;;3.72;2.95;;;;;;;22.99;69.63;96655.06;4958956;28;20478;-61
2022/06/23 11:51:47;;;;;;;6.50;3.20;;;;;;;22.62;70.00;96647.59;4962500;28;20166;-63
2022/06/23 11:54:20;;;;;;;4.97;3.78;;;;;;;22.41;71.94;96649.88;4965299;28;20058;-61
2022/06/23 11:58:05;;;;;;;6.23;3.70;;;;;;;22.36;73.48;96642.03;4963629;28;20118;-63
2022/06/23 12:00:54;;;;;;;6.38;3.90;;;;;;;20.55;74.23;96303.31;4926055;28;20105;-71
2022/06/23 12:03:27;;;;;;;5.70;4.00;;;;;;;23.19;73.18;96635.72;4942415;28;20565;-62
2022/06/23 12:06:17;;;;;;;4.47;3.75;;;;;;;23.44;73.20;96638.38;4930879;28;20055;-63
2022/06/23 12:09:07;;;;;;;4.28;3.80;;;;;;;23.08;72.28;96621.22;4963905;28;20481;-64
2022/06/23 12:11:36;;;;;;;7.13;3.20;;;;;;;23.16;71.47;96609.16;4964292;28;20057;-65
2022/06/23 12:14:07;;;;;;;8.75;4.40;;;;;;;23.43;70.00;96595.19;4964850;28;20070;-67
2022/06/23 12:16:40;;;;;;;4.45;3.20;;;;;;;23.42;68.84;96604.13;4965421;28;20046;-64
2022/06/23 12:19:13;;;;;;;6.75;4.32;;;;;;;23.24;73.93;96640.75;4963723;28;20480;-63
2022/06/23 12:21:57;;;;;;;5.07;3.40;;;;;;;23.22;73.75;96634.81;4965684;28;20054;-61
2022/06/23 12:24:49;;;;;;;4.03;3.60;;;;;;;23.12;77.16;96627.50;4963954;28;20059;-63
2022/06/23 12:27:32;;;;;;;6.55;3.70;;;;;;;23.22;76.06;96632.75;4960563;28;20054;-59
2022/06/23 12:30:07;;;;;;;4.05;3.65;;;;;;;22.92;77.62;96635.56;4961595;28;20043;-63
2022/06/23 12:32:55;;;;;;;6.68;6.00;;;;;;;23.34;77.89;96642.41;4967505;28;20074;-70
2022/06/23 12:35:35;;;;;;;5.55;4.03;;;;;;;23.13;75.71;96637.56;4967289;28;20324;-63
2022/06/23 12:38:44;;;;;;;8.05;4.28;;;;;;;23.65;74.32;96629.03;4965353;28;20055;-62
2022/06/23 12:41:17;;;;;;;9.30;3.72;;;;;;;24.11;71.57;96629.94;4960396;28;20054;-67
2022/06/23 12:43:49;;;;;;;4.70;4.13;;;;;;;24.21;69.83;96626.69;4960264;28;20051;-67
2022/06/23 12:46:23;;;;;;;8.17;4.37;;;;;;;24.46;70.53;96626.38;4962395;28;20403;-66